createdAt,value
2023-04-20T00:01:04.995Z,8.70
2023-04-20T00:03:33.516Z,8.78
2023-04-20T00:06:02.115Z,8.76
2023-04-20T00:08:30.149Z,8.74
2023-04-20T00:10:57.845Z,8.76
2023-04-20T00:13:26.631Z,8.78
2023-04-20T00:15:54.372Z,8.72
2023-04-20T00:18:22.196Z,8.70
2023-04-20T00:20:49.917Z,8.70
2023-04-20T00:23:17.785Z,8.70
2023-04-20T00:25:45.544Z,8.70
2023-04-20T00:28:13.300Z,8.70
2023-04-20T00:30:41.361Z,8.70
2023-04-20T00:33:09.168Z,8.70
2023-04-20T00:35:37.052Z,8.70
2023-04-20T00:38:04.854Z,8.70
2023-04-20T00:40:33.622Z,8.70
2023-04-20T00:43:14.862Z,8.70
2023-04-20T00:45:42.826Z,8.72
2023-04-20T00:48:10.904Z,8.76
2023-04-20T00:50:40.850Z,8.80
2023-04-20T00:53:09.252Z,8.80
2023-04-20T00:55:38.671Z,8.80
2023-04-20T00:58:07.024Z,8.80
2023-04-20T01:00:35.211Z,8.80
2023-04-20T01:03:03.248Z,8.80
2023-04-20T01:05:31.930Z,8.80
2023-04-20T01:07:59.755Z,8.80
2023-04-20T01:10:27.595Z,8.80
2023-04-20T01:12:55.420Z,8.80
2023-04-20T01:15:23.354Z,8.80
2023-04-20T01:17:52.545Z,8.80
2023-04-20T01:20:20.690Z,8.76
2023-04-20T01:22:51.511Z,8.70
2023-04-20T01:25:20.320Z,8.70
2023-04-20T01:27:48.823Z,8.68
2023-04-20T01:30:17.431Z,8.60
2023-04-20T01:32:45.980Z,8.60
2023-04-20T01:35:15.957Z,8.60
2023-04-20T01:37:43.790Z,8.58
2023-04-20T01:40:13.960Z,8.50
2023-04-20T01:42:41.900Z,8.46
2023-04-20T01:45:10.162Z,8.40
2023-04-20T01:47:38.047Z,8.30
2023-04-20T01:50:06.494Z,8.30
2023-04-20T01:52:34.335Z,8.20
2023-04-20T01:55:02.112Z,8.18
2023-04-20T01:57:29.939Z,8.10
2023-04-20T01:59:57.669Z,8.00
2023-04-20T02:02:25.653Z,8.00
2023-04-20T02:04:53.966Z,7.94
2023-04-20T02:07:21.809Z,7.90
2023-04-20T02:09:49.586Z,7.90
2023-04-20T02:12:17.315Z,7.84
2023-04-20T02:14:45.166Z,7.80
2023-04-20T02:17:14.202Z,7.80
2023-04-20T02:19:42.048Z,7.80
2023-04-20T02:22:09.897Z,7.80
2023-04-20T02:24:37.657Z,7.78
2023-04-20T02:27:05.751Z,7.70
2023-04-20T02:29:33.495Z,7.70
2023-04-20T02:32:01.743Z,7.60
2023-04-20T02:34:29.573Z,7.60
2023-04-20T02:36:57.294Z,7.58
2023-04-20T02:39:25.133Z,7.50
2023-04-20T02:41:52.866Z,7.50
2023-04-20T02:44:20.626Z,7.50
2023-04-20T02:46:48.437Z,7.50
2023-04-20T02:49:16.935Z,7.50
2023-04-20T02:51:44.958Z,7.50
2023-04-20T02:54:12.696Z,7.50
2023-04-20T02:56:40.633Z,7.50
2023-04-20T02:59:08.447Z,7.50
2023-04-20T03:01:36.204Z,7.46
2023-04-20T03:04:04.785Z,7.40
2023-04-20T03:06:33.525Z,7.40
2023-04-20T03:09:01.596Z,7.40
2023-04-20T03:11:29.365Z,7.40
2023-04-20T03:13:57.112Z,7.40
2023-04-20T03:16:24.916Z,7.40
2023-04-20T03:18:52.865Z,7.40
2023-04-20T03:21:20.833Z,7.40
2023-04-20T03:23:49.490Z,7.40
2023-04-20T03:26:18.024Z,7.40
2023-04-20T03:28:45.907Z,7.40
2023-04-20T03:31:13.718Z,7.42
2023-04-20T03:33:41.543Z,7.50
2023-04-20T03:36:09.866Z,7.50
2023-04-20T03:38:37.630Z,7.50
2023-04-20T03:41:06.048Z,7.50
2023-04-20T03:43:34.560Z,7.50
2023-04-20T03:46:02.336Z,7.50
2023-04-20T03:48:30.151Z,7.50
2023-04-20T03:50:59.056Z,7.60
2023-04-20T03:53:29.218Z,7.60
2023-04-20T03:55:57.002Z,7.70
2023-04-20T03:58:24.741Z,7.70
2023-04-20T04:00:52.494Z,7.70
2023-04-20T04:03:20.753Z,7.76
2023-04-20T04:05:48.637Z,7.78
2023-04-20T04:08:16.273Z,7.80
2023-04-20T04:10:43.991Z,7.76
2023-04-20T04:13:11.732Z,7.80
2023-04-20T04:15:39.442Z,7.90
2023-04-20T04:18:07.174Z,8.10
2023-04-20T04:20:34.975Z,8.28
2023-04-20T04:23:02.997Z,8.40
2023-04-20T04:25:30.759Z,8.52
2023-04-20T04:27:58.830Z,8.70
2023-04-20T04:30:27.466Z,8.80
2023-04-20T04:32:55.677Z,8.90
2023-04-20T04:35:24.054Z,9.00
2023-04-20T04:37:52.923Z,9.10
2023-04-20T04:40:20.892Z,9.20
2023-04-20T04:42:48.742Z,9.30
2023-04-20T04:45:16.846Z,9.40
2023-04-20T04:47:44.801Z,9.50
2023-04-20T04:50:13.205Z,9.52
2023-04-20T04:52:40.975Z,9.60
2023-04-20T04:55:09.973Z,9.70
2023-04-20T04:57:38.794Z,9.80
2023-04-20T05:00:09.803Z,9.82
2023-04-20T05:02:37.849Z,9.90
2023-04-20T05:05:09.013Z,10.00
2023-04-20T05:07:38.665Z,10.10
2023-04-20T05:10:08.290Z,10.20
2023-04-20T05:12:36.274Z,10.28
2023-04-20T05:15:04.977Z,10.30
2023-04-20T05:17:32.928Z,10.40
2023-04-20T05:20:04.254Z,10.50
2023-04-20T05:22:32.076Z,10.50
2023-04-20T05:24:59.757Z,10.74
2023-04-20T05:27:27.550Z,10.98
2023-04-20T05:29:55.439Z,11.00
2023-04-20T05:32:23.316Z,10.90
2023-04-20T05:34:51.125Z,10.70
2023-04-20T05:37:18.976Z,10.70
2023-04-20T05:39:46.734Z,10.70
2023-04-20T05:42:14.730Z,10.78
2023-04-20T05:44:43.974Z,10.70
2023-04-20T05:47:12.236Z,10.60
2023-04-20T05:49:40.753Z,10.60
2023-04-20T05:52:08.576Z,10.58
2023-04-20T05:54:36.320Z,10.60
2023-04-20T05:57:05.814Z,10.50
2023-04-20T05:59:33.682Z,10.50
2023-04-20T06:02:01.909Z,10.54
2023-04-20T06:04:31.092Z,10.60
2023-04-20T06:07:00.291Z,10.70
2023-04-20T06:09:28.110Z,10.72
2023-04-20T06:11:55.993Z,10.80
2023-04-20T06:14:23.705Z,10.80
2023-04-20T06:16:51.472Z,10.80
2023-04-20T06:19:19.335Z,10.80
2023-04-20T06:21:47.268Z,10.80
2023-04-20T06:24:15.071Z,10.90
2023-04-20T06:26:42.892Z,10.94
2023-04-20T06:29:10.661Z,11.00
2023-04-20T06:31:38.464Z,11.08
2023-04-20T06:34:06.265Z,11.06
2023-04-20T06:36:34.030Z,11.00
2023-04-20T06:39:01.853Z,11.00
2023-04-20T06:41:29.701Z,11.00
2023-04-20T06:43:57.531Z,11.00
2023-04-20T06:46:25.484Z,11.00
2023-04-20T06:48:53.252Z,11.00
2023-04-20T06:51:21.110Z,11.00
2023-04-20T06:53:48.915Z,11.10
2023-04-20T06:56:16.680Z,11.10
2023-04-20T06:58:44.410Z,11.20
2023-04-20T07:01:12.179Z,11.20
2023-04-20T07:03:40.274Z,11.30
2023-04-20T07:06:11.120Z,11.40
2023-04-20T07:08:43.156Z,11.40
2023-04-20T07:11:11.124Z,11.50
2023-04-20T07:13:38.897Z,11.52
2023-04-20T07:16:07.259Z,11.60
2023-04-20T07:18:35.632Z,11.60
2023-04-20T07:21:03.870Z,11.70
2023-04-20T07:23:31.672Z,11.80
2023-04-20T07:25:59.454Z,11.88
2023-04-20T07:28:27.327Z,11.90
2023-04-20T07:30:55.048Z,11.90
2023-04-20T07:33:24.258Z,12.00
2023-04-20T07:35:52.415Z,12.00
2023-04-20T07:38:20.273Z,11.90
2023-04-20T07:40:48.189Z,11.90
2023-04-20T07:43:16.004Z,11.80
2023-04-20T07:45:44.147Z,11.80
2023-04-20T07:48:12.654Z,11.70
2023-04-20T07:50:40.711Z,11.68
2023-04-20T07:53:08.534Z,11.70
2023-04-20T07:55:36.965Z,11.70
2023-04-20T07:58:04.764Z,11.70
2023-04-20T08:00:32.528Z,11.62
2023-04-20T08:03:00.602Z,11.70
2023-04-20T08:05:28.789Z,11.86
2023-04-20T08:07:57.003Z,12.00
2023-04-20T08:10:25.136Z,12.06
2023-04-20T08:12:53.706Z,12.20
2023-04-20T08:15:21.601Z,12.20
2023-04-20T08:17:49.461Z,12.20
2023-04-20T08:20:17.226Z,12.20
2023-04-20T08:22:45.161Z,12.30
2023-04-20T08:25:12.931Z,12.32
2023-04-20T08:27:40.865Z,12.40
2023-04-20T08:30:11.004Z,12.50
2023-04-20T08:32:39.022Z,12.50
2023-04-20T08:35:08.704Z,12.64
2023-04-20T08:37:37.739Z,12.70
2023-04-20T08:40:06.467Z,12.70
2023-04-20T08:42:34.400Z,12.60
2023-04-20T08:45:02.233Z,12.60
2023-04-20T08:47:33.175Z,12.70
2023-04-20T08:50:04.513Z,12.86
2023-04-20T08:52:33.286Z,13.00
2023-04-20T08:55:01.213Z,13.10
2023-04-20T08:57:29.050Z,13.20
2023-04-20T08:59:58.171Z,13.20
2023-04-20T09:02:26.442Z,13.10
2023-04-20T09:05:04.798Z,13.20
2023-04-20T09:07:32.837Z,13.18
2023-04-20T09:10:01.346Z,13.00
2023-04-20T09:12:29.278Z,12.80
2023-04-20T09:14:57.216Z,12.60
2023-04-20T09:17:37.596Z,12.50
2023-04-20T09:20:07.092Z,12.50
2023-04-20T09:22:37.814Z,12.80
2023-04-20T09:25:17.157Z,13.00
2023-04-20T09:27:57.456Z,13.00
2023-04-20T09:30:25.940Z,13.10
2023-04-20T09:33:04.695Z,13.30
2023-04-20T09:35:32.656Z,13.30
2023-04-20T09:38:00.702Z,13.40
2023-04-20T09:40:28.995Z,13.30
2023-04-20T09:43:03.198Z,12.96
2023-04-20T09:45:31.908Z,12.80
2023-04-20T09:47:59.858Z,12.70
2023-04-20T09:50:38.265Z,12.60
2023-04-20T09:53:18.041Z,12.50
2023-04-20T09:55:51.342Z,12.60
2023-04-20T09:58:23.864Z,12.74
2023-04-20T10:00:51.822Z,12.90
2023-04-20T10:03:21.941Z,13.00
2023-04-20T10:05:51.682Z,13.08
2023-04-20T10:08:20.922Z,13.20
2023-04-20T10:10:51.571Z,13.20
2023-04-20T10:13:21.890Z,13.30
2023-04-20T10:15:49.835Z,13.30
2023-04-20T10:18:23.924Z,13.30
2023-04-20T10:21:06.216Z,13.40
2023-04-20T10:23:34.001Z,13.38
2023-04-20T10:26:02.871Z,13.22
2023-04-20T10:28:44.955Z,13.00
2023-04-20T10:31:15.819Z,12.90
2023-04-20T10:33:56.198Z,12.86
2023-04-20T10:36:29.454Z,13.14
2023-04-20T10:38:58.859Z,13.30
2023-04-20T10:41:27.259Z,13.42
2023-04-20T10:43:55.084Z,13.60
2023-04-20T10:46:25.198Z,13.86
2023-04-20T10:49:01.341Z,13.90
2023-04-20T10:51:30.010Z,13.90
2023-04-20T10:54:11.588Z,13.78
2023-04-20T10:56:48.701Z,13.72
2023-04-20T10:59:20.032Z,13.70
2023-04-20T11:01:49.697Z,13.60
2023-04-20T11:04:19.168Z,13.80
2023-04-20T11:06:50.502Z,14.14
2023-04-20T11:09:26.273Z,14.40
2023-04-20T11:12:21.640Z,14.60
2023-04-20T11:14:56.184Z,14.80
2023-04-20T11:17:38.236Z,14.80
2023-04-20T11:20:15.468Z,14.90
2023-04-20T11:22:44.864Z,15.10
2023-04-20T11:25:13.142Z,15.20
2023-04-20T11:27:42.334Z,15.22
2023-04-20T11:30:11.096Z,15.20
2023-04-20T11:32:42.606Z,14.90
2023-04-20T11:35:12.811Z,14.80
2023-04-20T11:37:51.628Z,14.60
2023-04-20T11:40:20.402Z,14.70
2023-04-20T11:42:52.531Z,14.80
2023-04-20T11:45:20.352Z,14.80
2023-04-20T11:47:49.531Z,14.84
2023-04-20T11:50:19.844Z,14.80
2023-04-20T11:52:49.907Z,14.80
2023-04-20T11:55:18.294Z,14.90
2023-04-20T11:57:46.044Z,15.00
2023-04-20T12:00:15.282Z,15.10
2023-04-20T12:02:43.312Z,15.10
2023-04-20T12:05:11.965Z,14.90
2023-04-20T12:07:40.076Z,14.90
2023-04-20T12:10:09.090Z,14.92
2023-04-20T12:12:37.336Z,14.82
2023-04-20T12:15:06.802Z,14.92
2023-04-20T12:17:34.712Z,14.86
2023-04-20T12:20:02.923Z,14.82
2023-04-20T12:22:30.750Z,14.82
2023-04-20T12:24:58.644Z,14.60
2023-04-20T12:27:26.732Z,14.60
2023-04-20T12:29:54.500Z,14.60
2023-04-20T12:32:22.333Z,14.50
2023-04-20T12:34:50.195Z,14.50
2023-04-20T12:37:18.617Z,14.40
2023-04-20T12:39:46.470Z,14.40
2023-04-20T12:42:14.241Z,14.50
2023-04-20T12:44:42.018Z,14.50
2023-04-20T12:47:09.950Z,14.60
2023-04-20T12:49:37.797Z,14.64
2023-04-20T12:52:07.929Z,14.80
2023-04-20T12:54:35.972Z,14.80
2023-04-20T12:57:03.972Z,14.78
2023-04-20T12:59:31.718Z,14.70
2023-04-20T13:01:59.566Z,14.64
2023-04-20T13:04:27.699Z,14.70
2023-04-20T13:06:55.880Z,14.50
2023-04-20T13:09:27.143Z,14.50
2023-04-20T13:11:55.044Z,14.56
2023-04-20T13:14:22.908Z,14.66
2023-04-20T13:16:52.932Z,14.60
2023-04-20T13:19:22.638Z,14.60
2023-04-20T13:21:50.570Z,14.74
2023-04-20T13:24:18.616Z,14.88
2023-04-20T13:26:47.788Z,14.90
2023-04-20T13:29:15.654Z,14.90
2023-04-20T13:31:43.744Z,15.00
2023-04-20T13:34:11.530Z,15.02
2023-04-20T13:36:39.318Z,15.00
2023-04-20T13:39:09.796Z,15.04
2023-04-20T13:41:37.897Z,14.90
2023-04-20T13:44:07.930Z,14.90
2023-04-20T13:46:36.922Z,14.90
2023-04-20T13:49:04.618Z,14.90
2023-04-20T13:51:32.794Z,14.80
2023-04-20T13:54:00.642Z,14.72
2023-04-20T13:56:28.448Z,14.70
2023-04-20T13:58:56.498Z,14.70
2023-04-20T14:01:25.861Z,14.60
2023-04-20T14:03:53.982Z,14.50
2023-04-20T14:06:22.088Z,14.50
2023-04-20T14:08:49.937Z,14.50
2023-04-20T14:11:17.775Z,14.50
2023-04-20T14:13:47.877Z,14.60
2023-04-20T14:16:15.854Z,14.60
2023-04-20T14:18:45.499Z,14.60
2023-04-20T14:21:14.124Z,14.60
2023-04-20T14:23:42.012Z,14.60
2023-04-20T14:26:09.817Z,14.68
2023-04-20T14:28:37.617Z,14.70
2023-04-20T14:31:06.290Z,14.70
2023-04-20T14:33:34.249Z,14.70
2023-04-20T14:36:02.047Z,14.72
2023-04-20T14:38:29.865Z,14.70
2023-04-20T14:40:57.678Z,14.70
2023-04-20T14:43:25.499Z,14.56
2023-04-20T14:45:55.283Z,14.50
2023-04-20T14:48:25.230Z,14.50
2023-04-20T14:50:55.921Z,14.40
2023-04-20T14:53:24.075Z,14.40
2023-04-20T14:55:52.001Z,14.40
2023-04-20T14:58:20.699Z,14.40
2023-04-20T15:00:51.359Z,14.40
2023-04-20T15:03:19.221Z,14.40
2023-04-20T15:05:47.442Z,14.30
2023-04-20T15:08:15.378Z,14.22
2023-04-20T15:10:43.194Z,14.20
2023-04-20T15:13:11.419Z,14.20
2023-04-20T15:15:48.287Z,14.14
2023-04-20T15:18:18.292Z,14.10
2023-04-20T15:20:46.192Z,14.10
2023-04-20T15:23:13.963Z,14.04
2023-04-20T15:25:41.715Z,14.00
2023-04-20T15:28:09.549Z,13.90
2023-04-20T15:30:37.441Z,14.00
2023-04-20T15:33:05.908Z,13.90
2023-04-20T15:35:35.184Z,13.88
2023-04-20T15:38:03.782Z,13.90
2023-04-20T15:40:31.591Z,13.90
2023-04-20T15:42:59.385Z,14.00
2023-04-20T15:45:27.173Z,14.00
2023-04-20T15:47:56.159Z,14.00
2023-04-20T15:50:24.034Z,14.00
2023-04-20T15:52:54.846Z,14.00
2023-04-20T15:55:22.988Z,14.06
2023-04-20T15:57:57.026Z,14.02
2023-04-20T16:00:25.060Z,14.00
2023-04-20T16:02:54.362Z,13.90
2023-04-20T16:05:23.195Z,13.86
2023-04-20T16:07:51.005Z,13.90
2023-04-20T16:10:18.924Z,13.84
2023-04-20T16:12:46.749Z,13.80
2023-04-20T16:15:14.801Z,13.80
2023-04-20T16:17:42.615Z,13.80
2023-04-20T16:20:11.408Z,13.80
2023-04-20T16:22:39.882Z,13.70
2023-04-20T16:25:09.413Z,13.60
2023-04-20T16:27:37.481Z,13.50
2023-04-20T16:30:07.029Z,13.44
2023-04-20T16:32:34.894Z,13.40
2023-04-20T16:35:02.871Z,13.40
2023-04-20T16:37:33.755Z,13.60
2023-04-20T16:40:02.424Z,13.60
2023-04-20T16:42:30.214Z,13.80
2023-04-20T16:44:57.930Z,13.80
2023-04-20T16:47:26.064Z,13.90
2023-04-20T16:49:53.919Z,13.90
2023-04-20T16:52:21.890Z,13.80
2023-04-20T16:54:49.689Z,13.90
2023-04-20T16:57:17.726Z,14.00
2023-04-20T16:59:46.991Z,14.00
2023-04-20T17:02:14.897Z,14.00
2023-04-20T17:04:43.085Z,13.98
2023-04-20T17:07:13.567Z,13.96
2023-04-20T17:09:41.431Z,13.80
2023-04-20T17:12:09.344Z,13.80
2023-04-20T17:14:37.433Z,13.70
2023-04-20T17:17:05.558Z,13.58
2023-04-20T17:19:34.634Z,13.30
2023-04-20T17:22:03.899Z,13.20
2023-04-20T17:24:31.829Z,13.00
2023-04-20T17:26:59.613Z,12.90
2023-04-20T17:29:28.931Z,12.72
2023-04-20T17:31:59.883Z,12.60
2023-04-20T17:34:28.100Z,12.42
2023-04-20T17:36:56.115Z,12.24
2023-04-20T17:39:27.308Z,12.10
2023-04-20T17:41:55.558Z,12.00
2023-04-20T17:44:23.572Z,11.84
2023-04-20T17:46:51.680Z,11.70
2023-04-20T17:49:19.714Z,11.64
2023-04-20T17:51:48.374Z,11.60
2023-04-20T17:54:16.785Z,11.50
2023-04-20T17:56:45.166Z,11.42
2023-04-20T17:59:12.986Z,11.40
2023-04-20T18:01:40.980Z,11.30
2023-04-20T18:04:09.306Z,11.28
2023-04-20T18:06:37.347Z,11.20
2023-04-20T18:09:05.305Z,11.18
2023-04-20T18:11:33.027Z,11.10
2023-04-20T18:14:00.987Z,11.10
2023-04-20T18:16:28.781Z,11.00
2023-04-20T18:18:56.540Z,11.00
2023-04-20T18:21:24.438Z,11.00
2023-04-20T18:23:52.268Z,10.98
2023-04-20T18:26:20.652Z,11.00
2023-04-20T18:28:48.439Z,11.00
2023-04-20T18:31:16.335Z,10.98
2023-04-20T18:33:44.278Z,10.90
2023-04-20T18:36:16.922Z,10.90
2023-04-20T18:38:44.926Z,10.90
2023-04-20T18:41:13.383Z,10.82
2023-04-20T18:43:41.648Z,10.80
2023-04-20T18:46:09.442Z,10.86
2023-04-20T18:48:37.395Z,10.86
2023-04-20T18:51:05.490Z,10.80
2023-04-20T18:53:34.627Z,10.80
2023-04-20T18:56:02.437Z,10.80
2023-04-20T18:58:31.511Z,10.80
2023-04-20T19:01:01.512Z,10.72
2023-04-20T19:03:29.652Z,10.80
2023-04-20T19:05:58.094Z,10.80
2023-04-20T19:08:25.885Z,10.80
2023-04-20T19:10:57.435Z,10.80
2023-04-20T19:13:25.395Z,10.80
2023-04-20T19:15:59.363Z,10.80
2023-04-20T19:18:27.458Z,10.80
2023-04-20T19:20:55.575Z,10.76
2023-04-20T19:23:23.294Z,10.78
2023-04-20T19:25:51.397Z,10.74
2023-04-20T19:28:24.037Z,10.70
2023-04-20T19:30:53.060Z,10.70
2023-04-20T19:33:21.225Z,10.70
2023-04-20T19:35:51.125Z,10.70
2023-04-20T19:38:20.901Z,10.60
2023-04-20T19:40:50.101Z,10.60
2023-04-20T19:43:18.224Z,10.50
2023-04-20T19:45:46.106Z,10.48
2023-04-20T19:48:14.368Z,10.40
2023-04-20T19:50:42.306Z,10.32
2023-04-20T19:53:10.230Z,10.30
2023-04-20T19:55:38.104Z,10.20
2023-04-20T19:58:09.380Z,10.20
2023-04-20T20:00:39.015Z,10.10
2023-04-20T20:03:10.628Z,10.10
2023-04-20T20:05:38.912Z,10.10
2023-04-20T20:08:06.855Z,10.10
2023-04-20T20:10:34.996Z,10.10
2023-04-20T20:13:03.281Z,10.00
2023-04-20T20:15:33.055Z,10.00
2023-04-20T20:18:01.150Z,10.00
2023-04-20T20:20:30.726Z,10.00
2023-04-20T20:23:00.227Z,9.94
2023-04-20T20:25:28.372Z,9.90
2023-04-20T20:27:56.404Z,9.90
2023-04-20T20:30:25.067Z,9.90
2023-04-20T20:32:53.502Z,9.80
2023-04-20T20:35:22.700Z,9.82
2023-04-20T20:37:51.195Z,9.90
2023-04-20T20:40:19.744Z,9.86
2023-04-20T20:42:48.040Z,9.80
2023-04-20T20:45:19.489Z,9.82
2023-04-20T20:47:48.008Z,9.84
2023-04-20T20:50:27.936Z,9.80
2023-04-20T20:52:56.573Z,9.80
2023-04-20T20:55:24.453Z,9.80
2023-04-20T20:57:52.475Z,9.80
2023-04-20T21:00:20.424Z,9.76
2023-04-20T21:02:48.415Z,9.70
2023-04-20T21:05:16.548Z,9.70
2023-04-20T21:07:44.861Z,9.70
2023-04-20T21:10:12.784Z,9.60
2023-04-20T21:12:40.573Z,9.60
2023-04-20T21:15:10.364Z,9.60
2023-04-20T21:17:38.275Z,9.56
2023-04-20T21:20:09.210Z,9.50
2023-04-20T21:22:37.596Z,9.40
2023-04-20T21:25:08.752Z,9.40
2023-04-20T21:27:37.123Z,9.32
2023-04-20T21:30:06.211Z,9.30
2023-04-20T21:32:33.989Z,9.30
2023-04-20T21:35:01.842Z,9.26
2023-04-20T21:37:29.641Z,9.20
2023-04-20T21:39:57.501Z,9.20
2023-04-20T21:42:25.316Z,9.12
2023-04-20T21:44:53.087Z,9.10
2023-04-20T21:47:21.580Z,9.10
2023-04-20T21:49:49.415Z,9.04
2023-04-20T21:52:17.299Z,9.00
2023-04-20T21:54:45.039Z,9.00
2023-04-20T21:57:12.864Z,9.00
2023-04-20T21:59:40.748Z,8.90
2023-04-20T22:02:08.642Z,8.90
2023-04-20T22:04:36.641Z,8.90
2023-04-20T22:07:04.531Z,8.90
2023-04-20T22:09:32.418Z,8.80
2023-04-20T22:12:02.198Z,8.80
2023-04-20T22:14:30.163Z,8.80
2023-04-20T22:16:58.053Z,8.70
2023-04-20T22:19:26.033Z,8.70
2023-04-20T22:21:53.977Z,8.70
2023-04-20T22:24:21.765Z,8.74
2023-04-20T22:26:49.606Z,8.80
2023-04-20T22:29:17.654Z,8.80
2023-04-20T22:31:45.780Z,8.90
2023-04-20T22:34:13.810Z,9.00
2023-04-20T22:36:41.761Z,9.00
2023-04-20T22:39:09.796Z,9.02
2023-04-20T22:41:37.621Z,9.10
2023-04-20T22:44:05.960Z,9.10
2023-04-20T22:46:33.886Z,9.10
2023-04-20T22:49:01.771Z,9.12
2023-04-20T22:51:29.585Z,9.10
2023-04-20T22:53:57.699Z,9.10
2023-04-20T22:56:25.774Z,9.00
2023-04-20T22:58:53.492Z,9.00
2023-04-20T23:01:21.336Z,9.00
2023-04-20T23:03:49.224Z,9.00
2023-04-20T23:06:18.257Z,9.00
2023-04-20T23:08:46.944Z,9.00
2023-04-20T23:11:16.563Z,9.00
2023-04-20T23:13:46.886Z,9.00
2023-04-20T23:16:14.825Z,9.00
2023-04-20T23:18:42.626Z,9.00
2023-04-20T23:21:10.443Z,9.00
2023-04-20T23:23:38.327Z,9.00
2023-04-20T23:26:06.203Z,9.10
2023-04-20T23:28:33.936Z,9.12
2023-04-20T23:31:01.804Z,9.20
2023-04-20T23:33:29.525Z,9.20
2023-04-20T23:36:00.741Z,9.20
2023-04-20T23:38:28.575Z,9.20
2023-04-20T23:40:56.309Z,9.20
2023-04-20T23:43:24.057Z,9.20
2023-04-20T23:45:51.905Z,9.16
2023-04-20T23:48:19.704Z,9.12
2023-04-20T23:50:49.148Z,9.10
2023-04-20T23:53:17.030Z,9.10
2023-04-20T23:55:51.818Z,9.00
2023-04-20T23:58:19.616Z,8.90
